createdAt,value
2023-03-26T00:02:15.665Z,94345.72
2023-03-26T00:04:46.713Z,94341.22
2023-03-26T00:07:16.322Z,94334.31
2023-03-26T00:09:45.438Z,94330.13
2023-03-26T00:12:14.625Z,94318.34
2023-03-26T00:14:45.223Z,94315.94
2023-03-26T00:17:14.506Z,94323.44
2023-03-26T00:19:43.575Z,94321.03
2023-03-26T00:22:13.735Z,94342.50
2023-03-26T00:24:46.104Z,94350.59
2023-03-26T00:27:15.215Z,94345.53
2023-03-26T00:29:45.847Z,94347.72
2023-03-26T00:32:14.883Z,94352.59
2023-03-26T00:34:46.410Z,94349.59
2023-03-26T00:37:15.666Z,94354.13
2023-03-26T00:39:44.826Z,94351.81
2023-03-26T00:42:15.061Z,94362.16
2023-03-26T00:44:46.804Z,94354.94
2023-03-26T00:47:16.147Z,94347.00
2023-03-26T00:49:47.168Z,94353.97
2023-03-26T00:52:18.933Z,94350.38
2023-03-26T00:54:48.436Z,94350.16
2023-03-26T00:57:25.799Z,94350.41
2023-03-26T01:00:16.582Z,94353.28
2023-03-26T01:02:46.563Z,94367.78
2023-03-26T01:05:45.733Z,94363.44
2023-03-26T01:08:22.924Z,94362.63
2023-03-26T01:10:53.320Z,94365.03
2023-03-26T01:13:24.847Z,94364.63
2023-03-26T01:15:55.559Z,94374.88
2023-03-26T01:18:27.233Z,94372.63
2023-03-26T01:21:07.700Z,94371.59
2023-03-26T01:23:43.059Z,94368.75
2023-03-26T01:26:27.434Z,94367.03
2023-03-26T01:29:01.867Z,94378.25
2023-03-26T01:31:37.212Z,94385.25
2023-03-26T01:34:13.448Z,94378.28
2023-03-26T01:36:50.475Z,94376.28
2023-03-26T01:39:26.412Z,94385.50
2023-03-26T01:42:02.933Z,94368.84
2023-03-26T01:44:41.280Z,94370.34
2023-03-26T01:47:12.361Z,94374.28
2023-03-26T01:49:41.461Z,94377.19
2023-03-26T01:52:16.564Z,94375.47
2023-03-26T01:54:47.354Z,94381.66
2023-03-26T01:57:25.781Z,94382.03
2023-03-26T02:00:11.840Z,94389.59
2023-03-26T02:02:56.544Z,94406.88
2023-03-26T02:05:30.072Z,94392.41
2023-03-26T02:08:09.928Z,94392.00
2023-03-26T02:10:44.348Z,94402.72
2023-03-26T02:13:16.206Z,94401.28
2023-03-26T02:15:57.830Z,94383.13
2023-03-26T02:18:36.972Z,94386.34
2023-03-26T02:21:10.339Z,94400.66
2023-03-26T02:23:42.255Z,94404.09
2023-03-26T02:26:13.031Z,94407.78
2023-03-26T02:28:57.188Z,94417.78
2023-03-26T02:31:27.258Z,94420.94
2023-03-26T02:34:11.648Z,94427.38
2023-03-26T02:36:44.351Z,94421.16
2023-03-26T02:39:14.540Z,94421.81
2023-03-26T02:41:49.513Z,94422.03
2023-03-26T02:44:20.708Z,94433.47
2023-03-26T02:47:01.656Z,94441.50
2023-03-26T02:49:49.249Z,94441.84
2023-03-26T02:52:26.253Z,94431.41
2023-03-26T02:54:58.497Z,94448.38
2023-03-26T02:57:28.998Z,94447.34
2023-03-26T03:00:31.608Z,94444.31
2023-03-26T03:03:30.234Z,94443.59
2023-03-26T03:05:59.876Z,94444.44
2023-03-26T03:08:36.036Z,94459.44
2023-03-26T03:11:11.997Z,94456.25
2023-03-26T03:13:52.621Z,94466.16
2023-03-26T03:16:29.054Z,94461.53
2023-03-26T03:19:02.061Z,94466.31
2023-03-26T03:21:41.812Z,94461.03
2023-03-26T03:24:11.842Z,94454.25
2023-03-26T03:26:50.559Z,94456.47
2023-03-26T03:29:48.767Z,94441.97
2023-03-26T03:32:37.963Z,94440.00
2023-03-26T03:35:09.120Z,94435.91
2023-03-26T03:37:38.615Z,94441.25
2023-03-26T03:40:12.756Z,94439.34
2023-03-26T03:42:42.489Z,94442.78
2023-03-26T03:45:13.653Z,94446.00
2023-03-26T03:48:05.307Z,94442.53
2023-03-26T03:50:42.195Z,94441.50
2023-03-26T03:53:40.883Z,94447.13
2023-03-26T03:56:11.478Z,94435.81
2023-03-26T03:59:01.221Z,94446.47
2023-03-26T04:01:36.580Z,94463.38
2023-03-26T04:04:13.995Z,94452.84
2023-03-26T04:07:12.419Z,94469.78
2023-03-26T04:10:04.093Z,94473.47
2023-03-26T04:12:53.235Z,94487.22
2023-03-26T04:15:36.282Z,94494.28
2023-03-26T04:18:11.794Z,94499.91
2023-03-26T04:23:29.968Z,94513.19
2023-03-26T04:26:07.882Z,94525.28
2023-03-26T04:29:02.891Z,94516.50
2023-03-26T04:31:34.407Z,94522.66
2023-03-26T04:34:08.916Z,94530.00
2023-03-26T04:36:46.510Z,94533.28
2023-03-26T04:39:19.430Z,94532.31
2023-03-26T04:42:20.184Z,94528.13
2023-03-26T04:45:12.035Z,94523.25
2023-03-26T04:47:43.979Z,94517.28
2023-03-26T04:50:14.246Z,94511.34
2023-03-26T04:52:45.476Z,94506.94
2023-03-26T04:55:53.796Z,94522.91
2023-03-26T04:58:42.591Z,94519.16
2023-03-26T05:01:12.394Z,94519.88
2023-03-26T05:03:46.019Z,94532.25
2023-03-26T05:06:19.216Z,94538.25
2023-03-26T05:08:48.566Z,94537.97
2023-03-26T05:11:37.274Z,94553.53
2023-03-26T05:14:07.012Z,94561.00
2023-03-26T05:16:41.657Z,94569.75
2023-03-26T05:19:11.314Z,94575.97
2023-03-26T05:21:41.467Z,94585.72
2023-03-26T05:24:10.599Z,94582.81
2023-03-26T05:26:41.672Z,94594.78
2023-03-26T05:29:10.894Z,94600.88
2023-03-26T05:31:46.356Z,94605.72
2023-03-26T05:34:15.857Z,94606.78
2023-03-26T05:36:44.914Z,94607.34
2023-03-26T05:39:44.128Z,94599.31
2023-03-26T05:42:34.958Z,94597.56
2023-03-26T05:45:23.516Z,94607.31
2023-03-26T05:47:55.097Z,94612.13
2023-03-26T05:50:27.092Z,94609.69
2023-03-26T05:53:01.181Z,94607.75
2023-03-26T05:55:59.693Z,94610.69
2023-03-26T05:58:39.577Z,94606.59
2023-03-26T06:01:29.640Z,94613.72
2023-03-26T06:04:19.216Z,94617.72
2023-03-26T06:07:11.506Z,94603.03
2023-03-26T06:09:42.634Z,94605.69
2023-03-26T06:12:12.692Z,94598.97
2023-03-26T06:14:44.386Z,94602.06
2023-03-26T06:17:21.381Z,94594.03
2023-03-26T06:20:09.214Z,94597.16
2023-03-26T06:22:42.435Z,94593.63
2023-03-26T06:25:34.693Z,94595.47
2023-03-26T06:28:10.561Z,94598.66
2023-03-26T06:31:12.681Z,94602.03
2023-03-26T06:33:53.623Z,94594.97
2023-03-26T06:36:23.312Z,94603.94
2023-03-26T06:38:53.847Z,94602.13
2023-03-26T06:41:23.413Z,94603.63
2023-03-26T06:44:11.501Z,94610.91
2023-03-26T06:47:01.052Z,94611.72
2023-03-26T06:50:09.602Z,94615.94
2023-03-26T06:53:01.897Z,94627.94
2023-03-26T06:58:46.978Z,94608.69
2023-03-26T07:01:34.724Z,94599.34
2023-03-26T07:04:22.989Z,94603.59
2023-03-26T07:07:20.630Z,94598.25
2023-03-26T07:10:09.167Z,94613.53
2023-03-26T07:12:38.425Z,94600.09
2023-03-26T07:15:32.161Z,94601.22
2023-03-26T07:18:33.705Z,94594.03
2023-03-26T07:21:05.820Z,94589.31
2023-03-26T07:23:36.136Z,94602.44
2023-03-26T07:26:32.667Z,94593.25
2023-03-26T07:29:28.116Z,94590.84
2023-03-26T07:32:21.943Z,94593.06
2023-03-26T07:35:28.668Z,94607.69
2023-03-26T07:38:29.508Z,94611.06
2023-03-26T07:41:22.515Z,94602.25
2023-03-26T07:44:35.729Z,94608.06
2023-03-26T07:47:36.163Z,94591.75
2023-03-26T07:50:27.570Z,94592.41
2023-03-26T07:53:05.236Z,94596.59
2023-03-26T07:56:16.028Z,94593.75
2023-03-26T07:59:16.637Z,94590.22
2023-03-26T08:02:28.955Z,94588.47
2023-03-26T08:05:19.994Z,94593.63
2023-03-26T08:08:17.722Z,94603.06
2023-03-26T08:11:15.479Z,94604.13
2023-03-26T08:14:03.826Z,94599.44
2023-03-26T08:16:38.694Z,94607.19
2023-03-26T08:19:29.980Z,94611.34
2023-03-26T08:22:08.596Z,94611.25
2023-03-26T08:24:47.287Z,94613.72
2023-03-26T08:27:24.627Z,94604.91
2023-03-26T08:30:02.559Z,94615.50
2023-03-26T08:32:33.308Z,94624.00
2023-03-26T08:35:05.339Z,94615.16
2023-03-26T08:37:36.613Z,94611.19
2023-03-26T08:40:07.079Z,94616.31
2023-03-26T08:43:11.029Z,94617.66
2023-03-26T08:45:59.887Z,94618.06
2023-03-26T08:48:57.246Z,94616.41
2023-03-26T08:52:01.320Z,94615.22
2023-03-26T08:55:18.057Z,94625.91
2023-03-26T08:58:11.492Z,94620.09
2023-03-26T09:00:58.826Z,94618.75
2023-03-26T09:04:05.267Z,94605.34
2023-03-26T09:07:16.771Z,94602.47
2023-03-26T09:10:32.564Z,94596.44
2023-03-26T09:13:35.672Z,94591.88
2023-03-26T09:16:27.254Z,94600.13
2023-03-26T09:19:25.606Z,94586.09
2023-03-26T09:22:29.135Z,94577.50
2023-03-26T09:25:30.129Z,94584.50
2023-03-26T09:28:39.951Z,94585.41
2023-03-26T09:31:29.335Z,94585.03
2023-03-26T09:34:20.047Z,94572.19
2023-03-26T09:37:08.325Z,94577.69
2023-03-26T09:39:45.429Z,94571.69
2023-03-26T09:42:25.150Z,94568.72
2023-03-26T09:45:29.580Z,94554.88
2023-03-26T09:48:28.090Z,94555.50
2023-03-26T09:51:15.224Z,94558.97
2023-03-26T09:53:59.551Z,94555.50
2023-03-26T09:56:40.702Z,94556.47
2023-03-26T09:59:39.520Z,94539.72
2023-03-26T10:02:45.866Z,94540.13
2023-03-26T10:05:34.487Z,94545.00
2023-03-26T10:08:20.484Z,94531.38
2023-03-26T10:10:56.238Z,94523.22
2023-03-26T10:13:34.876Z,94519.63
2023-03-26T10:16:18.659Z,94518.16
2023-03-26T10:18:57.444Z,94521.06
2023-03-26T10:21:36.632Z,94507.47
2023-03-26T10:24:42.133Z,94509.53
2023-03-26T10:27:26.237Z,94515.69
2023-03-26T10:30:29.914Z,94503.09
2023-03-26T10:33:14.874Z,94498.03
2023-03-26T10:35:49.781Z,94490.56
2023-03-26T10:38:26.629Z,94482.84
2023-03-26T10:41:07.808Z,94474.69
2023-03-26T10:44:07.495Z,94476.78
2023-03-26T10:47:08.703Z,94474.13
2023-03-26T10:50:04.590Z,94481.81
2023-03-26T10:52:39.402Z,94471.03
2023-03-26T10:55:16.109Z,94471.09
2023-03-26T10:57:50.732Z,94468.66
2023-03-26T11:00:25.660Z,94465.41
2023-03-26T11:03:13.679Z,94468.66
2023-03-26T11:05:53.050Z,94471.06
2023-03-26T11:08:32.022Z,94451.94
2023-03-26T11:11:10.153Z,94457.16
2023-03-26T11:13:52.675Z,94453.38
2023-03-26T11:16:29.831Z,94441.97
2023-03-26T11:19:05.682Z,94437.97
2023-03-26T11:21:45.846Z,94447.72
2023-03-26T11:24:40.267Z,94441.75
2023-03-26T11:27:22.627Z,94431.56
2023-03-26T11:30:03.612Z,94431.63
2023-03-26T11:32:42.934Z,94434.78
2023-03-26T11:35:40.336Z,94422.03
2023-03-26T11:38:20.719Z,94421.81
2023-03-26T11:40:56.016Z,94420.00
2023-03-26T11:43:52.621Z,94420.88
2023-03-26T11:46:24.533Z,94415.19
2023-03-26T11:48:59.975Z,94402.84
2023-03-26T11:51:33.186Z,94396.31
2023-03-26T11:54:05.879Z,94391.25
2023-03-26T11:56:39.096Z,94389.53
2023-03-26T11:59:13.932Z,94386.03
2023-03-26T12:01:51.226Z,94380.63
2023-03-26T12:04:29.248Z,94378.91
2023-03-26T12:07:09.047Z,94375.22
2023-03-26T12:09:52.267Z,94364.63
2023-03-26T12:12:26.843Z,94370.75
2023-03-26T12:14:57.896Z,94362.06
2023-03-26T12:17:32.269Z,94356.00
2023-03-26T12:20:02.422Z,94356.50
2023-03-26T12:22:37.513Z,94358.25
2023-03-26T12:25:20.408Z,94348.44
2023-03-26T12:27:51.594Z,94342.38
2023-03-26T12:30:23.509Z,94346.56
2023-03-26T12:32:54.702Z,94345.63
2023-03-26T12:35:27.948Z,94350.59
2023-03-26T12:38:16.893Z,94344.41
2023-03-26T12:40:48.177Z,94329.63
2023-03-26T12:44:49.730Z,94337.06
2023-03-26T12:47:58.982Z,94339.41
2023-03-26T12:49:16.160Z,94338.03
2023-03-26T12:51:52.055Z,94339.56
2023-03-26T12:54:46.287Z,94327.47
2023-03-26T12:57:21.794Z,94334.47
2023-03-26T13:00:11.116Z,94331.19
2023-03-26T13:03:06.967Z,94332.91
2023-03-26T13:05:47.068Z,94328.16
2023-03-26T13:08:46.781Z,94315.31
2023-03-26T13:11:28.614Z,94314.91
2023-03-26T13:14:22.645Z,94310.38
2023-03-26T13:16:57.613Z,94311.34
2023-03-26T13:19:35.099Z,94307.75
2023-03-26T13:22:18.847Z,94306.72
2023-03-26T13:24:58.448Z,94299.81
2023-03-26T13:27:43.806Z,94299.31
2023-03-26T13:30:27.441Z,94288.88
2023-03-26T13:33:19.795Z,94277.94
2023-03-26T13:36:10.265Z,94279.19
2023-03-26T13:38:59.206Z,94273.03
2023-03-26T13:41:42.553Z,94279.47
2023-03-26T13:44:18.913Z,94270.22
2023-03-26T13:46:53.728Z,94270.94
2023-03-26T13:49:37.422Z,94272.97
2023-03-26T13:52:12.094Z,94271.00
2023-03-26T13:54:48.192Z,94260.63
2023-03-26T13:57:24.523Z,94268.66
2023-03-26T13:59:57.833Z,94265.59
2023-03-26T14:02:35.309Z,94256.03
2023-03-26T14:05:12.639Z,94256.63
2023-03-26T14:07:46.564Z,94254.16
2023-03-26T14:10:21.386Z,94246.66
2023-03-26T14:12:57.996Z,94238.19
2023-03-26T14:15:32.673Z,94238.34
2023-03-26T14:18:14.812Z,94250.38
2023-03-26T14:21:25.241Z,94248.72
2023-03-26T14:24:16.719Z,94247.19
2023-03-26T14:27:07.371Z,94247.78
2023-03-26T14:29:57.080Z,94237.78
2023-03-26T14:32:38.441Z,94226.34
2023-03-26T14:35:33.930Z,94234.53
2023-03-26T14:38:24.241Z,94230.75
2023-03-26T14:40:59.195Z,94229.00
2023-03-26T14:43:54.645Z,94232.88
2023-03-26T14:46:37.136Z,94228.47
2023-03-26T14:49:36.527Z,94226.09
2023-03-26T14:52:15.673Z,94230.28
2023-03-26T14:54:49.069Z,94225.28
2023-03-26T14:57:54.925Z,94225.13
2023-03-26T15:01:04.142Z,94226.16
2023-03-26T15:04:12.631Z,94231.03
2023-03-26T15:07:13.144Z,94228.88
2023-03-26T15:10:18.834Z,94231.94
2023-03-26T15:13:04.687Z,94235.50
2023-03-26T15:16:12.990Z,94228.25
2023-03-26T15:19:19.208Z,94230.88
2023-03-26T15:22:27.010Z,94232.38
2023-03-26T15:25:27.881Z,94225.72
2023-03-26T15:28:17.048Z,94223.09
2023-03-26T15:31:11.019Z,94229.31
2023-03-26T15:34:27.804Z,94231.06
2023-03-26T15:37:48.512Z,94232.97
2023-03-26T15:40:43.452Z,94226.72
2023-03-26T15:43:18.006Z,94226.25
2023-03-26T15:45:49.710Z,94230.00
2023-03-26T15:48:37.985Z,94233.41
2023-03-26T15:51:46.783Z,94223.53
2023-03-26T15:54:24.714Z,94222.44
2023-03-26T15:57:07.506Z,94223.22
2023-03-26T15:59:44.039Z,94222.09
2023-03-26T16:02:26.450Z,94224.84
2023-03-26T16:04:57.949Z,94222.66
2023-03-26T16:07:59.053Z,94218.00
2023-03-26T16:10:41.056Z,94210.81
2023-03-26T16:13:36.558Z,94217.03
2023-03-26T16:16:46.901Z,94210.72
2023-03-26T16:19:37.564Z,94214.19
2023-03-26T16:22:09.943Z,94207.88
2023-03-26T16:24:43.337Z,94219.81
2023-03-26T16:27:29.979Z,94218.88
2023-03-26T16:30:20.608Z,94224.09
2023-03-26T16:32:56.716Z,94230.31
2023-03-26T16:35:43.254Z,94230.31
2023-03-26T16:38:14.886Z,94226.31
2023-03-26T16:41:01.986Z,94216.63
2023-03-26T16:43:53.025Z,94213.50
2023-03-26T16:46:35.978Z,94210.22
2023-03-26T16:49:17.663Z,94216.47
2023-03-26T16:52:04.404Z,94218.66
2023-03-26T16:54:43.945Z,94205.09
2023-03-26T16:57:25.311Z,94213.38
2023-03-26T17:00:23.614Z,94213.22
2023-03-26T17:03:03.814Z,94207.66
2023-03-26T17:05:38.535Z,94209.91
2023-03-26T17:08:17.360Z,94213.00
2023-03-26T17:10:57.891Z,94208.28
2023-03-26T17:13:39.221Z,94206.44
2023-03-26T17:16:17.209Z,94207.47
2023-03-26T17:19:01.570Z,94209.88
2023-03-26T17:21:46.073Z,94218.75
2023-03-26T17:24:28.373Z,94224.09
2023-03-26T17:27:35.512Z,94217.72
2023-03-26T17:30:11.654Z,94220.13
2023-03-26T17:32:59.026Z,94213.53
2023-03-26T17:35:44.985Z,94214.13
2023-03-26T17:38:51.083Z,94217.94
2023-03-26T17:41:53.089Z,94218.19
2023-03-26T17:44:45.240Z,94211.59
2023-03-26T17:47:26.290Z,94213.50
2023-03-26T17:50:01.698Z,94216.19
2023-03-26T17:52:48.288Z,94211.50
2023-03-26T17:55:21.385Z,94213.38
2023-03-26T17:57:53.172Z,94211.03
2023-03-26T18:00:26.922Z,94222.53
2023-03-26T18:02:59.721Z,94216.72
2023-03-26T18:05:32.213Z,94215.66
2023-03-26T18:08:52.575Z,94208.22
2023-03-26T18:11:59.986Z,94213.84
2023-03-26T18:14:59.677Z,94204.59
2023-03-26T18:17:40.649Z,94208.81
2023-03-26T18:20:23.540Z,94207.81
2023-03-26T18:22:53.660Z,94205.41
2023-03-26T18:25:27.276Z,94204.34
2023-03-26T18:27:59.864Z,94204.34
2023-03-26T18:30:30.915Z,94203.03
2023-03-26T18:33:03.486Z,94205.69
2023-03-26T18:35:42.673Z,94199.03
2023-03-26T18:38:18.919Z,94203.53
2023-03-26T18:41:06.796Z,94200.38
2023-03-26T18:43:44.574Z,94195.31
2023-03-26T18:46:17.326Z,94197.72
2023-03-26T18:48:48.413Z,94198.25
2023-03-26T18:51:23.333Z,94192.13
2023-03-26T18:53:56.055Z,94190.03
2023-03-26T18:56:35.413Z,94189.22
2023-03-26T18:59:07.009Z,94180.41
2023-03-26T19:01:39.764Z,94181.22
2023-03-26T19:04:10.166Z,94174.34
2023-03-26T19:06:43.717Z,94173.53
2023-03-26T19:09:30.344Z,94167.97
2023-03-26T19:12:07.876Z,94160.78
2023-03-26T19:14:54.962Z,94163.13
2023-03-26T19:17:34.679Z,94159.16
2023-03-26T19:20:09.482Z,94153.03
2023-03-26T19:22:41.768Z,94152.78
2023-03-26T19:25:21.815Z,94149.84
2023-03-26T19:27:52.067Z,94150.31
2023-03-26T19:30:30.245Z,94152.94
2023-03-26T19:33:13.091Z,94149.25
2023-03-26T19:35:45.800Z,94145.50
2023-03-26T19:38:22.782Z,94144.44
2023-03-26T19:40:53.408Z,94138.31
2023-03-26T19:43:23.038Z,94145.22
2023-03-26T19:46:00.416Z,94140.69
2023-03-26T19:48:45.402Z,94127.66
2023-03-26T19:51:24.415Z,94127.66
2023-03-26T19:53:55.959Z,94135.59
2023-03-26T19:56:25.801Z,94133.75
2023-03-26T19:58:55.800Z,94114.31
2023-03-26T20:01:26.878Z,94130.72
2023-03-26T20:03:59.507Z,94127.22
2023-03-26T20:06:42.631Z,94127.72
2023-03-26T20:09:14.385Z,94124.13
2023-03-26T20:11:43.654Z,94128.03
2023-03-26T20:14:17.564Z,94124.78
2023-03-26T20:16:46.787Z,94126.00
2023-03-26T20:19:17.767Z,94130.66
2023-03-26T20:21:47.284Z,94122.88
2023-03-26T20:24:18.568Z,94120.56
2023-03-26T20:26:48.618Z,94121.63
2023-03-26T20:29:18.068Z,94117.47
2023-03-26T20:31:48.699Z,94118.44
2023-03-26T20:34:22.098Z,94116.72
2023-03-26T20:36:55.460Z,94117.09
2023-03-26T20:39:26.535Z,94119.19
2023-03-26T20:41:57.418Z,94114.72
2023-03-26T20:44:27.099Z,94104.94
2023-03-26T20:46:59.115Z,94111.56
2023-03-26T20:49:32.469Z,94115.56
2023-03-26T20:52:01.278Z,94100.22
2023-03-26T20:54:31.138Z,94098.69
2023-03-26T20:57:00.414Z,94107.97
2023-03-26T20:59:29.986Z,94109.84
2023-03-26T21:02:00.598Z,94107.50
2023-03-26T21:04:32.410Z,94102.53
2023-03-26T21:07:10.876Z,94088.00
2023-03-26T21:09:47.591Z,94096.38
2023-03-26T21:12:23.099Z,94087.00
2023-03-26T21:14:52.881Z,94082.72
2023-03-26T21:17:25.642Z,94082.34
2023-03-26T21:19:57.879Z,94078.75
2023-03-26T21:22:37.780Z,94064.63
2023-03-26T21:25:18.654Z,94055.78
2023-03-26T21:27:59.103Z,94052.91
2023-03-26T21:30:28.869Z,94044.78
2023-03-26T21:32:57.873Z,94041.34
2023-03-26T21:35:32.526Z,94039.50
2023-03-26T21:38:02.470Z,94032.75
2023-03-26T21:40:32.053Z,94033.63
2023-03-26T21:43:01.572Z,94025.59
2023-03-26T21:45:31.656Z,94034.56
2023-03-26T21:48:02.540Z,94044.31
2023-03-26T21:50:33.920Z,94045.53
2023-03-26T21:53:03.922Z,94041.13
2023-03-26T21:55:40.330Z,94034.59
2023-03-26T21:58:28.457Z,94027.53
2023-03-26T22:01:13.839Z,94033.63
2023-03-26T22:03:56.587Z,94029.38
2023-03-26T22:06:32.723Z,94023.34
2023-03-26T22:09:02.003Z,94019.38
2023-03-26T22:11:31.202Z,94000.50
2023-03-26T22:14:01.859Z,93998.09
2023-03-26T22:16:30.901Z,94001.34
2023-03-26T22:19:00.490Z,94005.75
2023-03-26T22:21:30.964Z,94001.75
2023-03-26T22:24:04.115Z,94005.03
2023-03-26T22:26:34.510Z,93996.38
2023-03-26T22:29:03.524Z,93979.09
2023-03-26T22:31:32.543Z,93976.41
2023-03-26T22:34:01.798Z,93976.22
2023-03-26T22:36:32.864Z,93964.50
2023-03-26T22:39:02.756Z,93965.22
2023-03-26T22:41:32.077Z,93959.72
2023-03-26T22:44:12.884Z,93959.84
2023-03-26T22:46:49.820Z,93963.94
2023-03-26T22:49:19.167Z,93959.31
2023-03-26T22:51:50.686Z,93956.59
2023-03-26T22:54:20.561Z,93952.78
2023-03-26T22:56:53.023Z,93943.03
2023-03-26T22:59:22.226Z,93956.13
2023-03-26T23:01:51.510Z,93939.06
2023-03-26T23:04:31.721Z,93937.84
2023-03-26T23:07:02.968Z,93938.09
2023-03-26T23:09:32.142Z,93936.50
2023-03-26T23:12:02.185Z,93935.78
2023-03-26T23:14:32.609Z,93939.75
2023-03-26T23:17:01.671Z,93942.22
2023-03-26T23:19:34.248Z,93934.63
2023-03-26T23:22:04.746Z,93923.78
2023-03-26T23:24:33.976Z,93930.47
2023-03-26T23:27:03.752Z,93918.72
2023-03-26T23:29:33.777Z,93905.50
2023-03-26T23:32:03.074Z,93919.19
2023-03-26T23:34:53.080Z,93908.25
2023-03-26T23:37:24.751Z,93906.41
2023-03-26T23:39:55.421Z,93903.00
2023-03-26T23:42:28.353Z,93900.84
2023-03-26T23:44:59.063Z,93902.06
2023-03-26T23:47:34.771Z,93892.28
2023-03-26T23:50:05.802Z,93888.63
2023-03-26T23:52:37.639Z,93878.56
2023-03-26T23:55:08.353Z,93882.00
2023-03-26T23:57:37.359Z,93879.13
